Time;durP1;ratioP1;P1;durP2;ratioP2;P2;SDS_P1;SDS_P2;PMS_P1;PMS_P2;Temp;Humidity;BMP_temperature;BMP_pressure;BME280_temperature;BME280_humidity;BME280_pressure;Samples;Min_cycle;Max_cycle;Signal;HPM_P1;HPM_P2
2021/06/29 00:02:25;;;;;;;25.83;17.27;;;20.40;99.90;;;;;;5050418;28;20016;-67
2021/06/29 00:04:51;;;;;;;37.33;17.48;;;20.40;99.90;;;;;;5050961;28;20167;-67
2021/06/29 00:07:17;;;;;;;31.17;16.85;;;20.30;99.90;;;;;;5050759;28;20028;-67
2021/06/29 00:09:43;;;;;;;27.52;16.70;;;20.30;99.90;;;;;;5050950;28;20013;-67
2021/06/29 00:12:09;;;;;;;27.80;16.23;;;20.30;99.90;;;;;;5050809;28;20390;-67
2021/06/29 00:14:35;;;;;;;24.60;14.98;;;20.30;99.90;;;;;;5051342;28;20032;-67
2021/06/29 00:17:00;;;;;;;26.92;16.17;;;20.20;99.90;;;;;;5050425;28;20028;-67
2021/06/29 00:19:26;;;;;;;28.80;14.85;;;20.20;99.90;;;;;;5051024;28;20045;-67
2021/06/29 00:21:51;;;;;;;30.30;14.98;;;20.10;99.90;;;;;;5050717;28;20052;-67
2021/06/29 00:24:17;;;;;;;27.33;15.45;;;20.10;99.90;;;;;;5050575;28;20393;-67
2021/06/29 00:26:43;;;;;;;28.05;15.05;;;20.10;99.90;;;;;;5050828;28;20487;-67
2021/06/29 00:29:08;;;;;;;27.15;15.40;;;20.10;99.90;;;;;;5050676;28;20359;-67
2021/06/29 00:31:35;;;;;;;31.25;15.70;;;20.00;99.90;;;;;;5050154;28;20021;-67
2021/06/29 00:34:00;;;;;;;27.65;14.60;;;20.00;99.90;;;;;;5050730;28;20031;-67
2021/06/29 00:36:26;;;;;;;30.17;14.30;;;20.00;99.90;;;;;;5050655;28;20033;-67
2021/06/29 00:38:52;;;;;;;30.75;15.02;;;20.00;99.90;;;;;;5050244;28;20029;-67
2021/06/29 00:41:17;;;;;;;28.55;13.70;;;20.00;99.90;;;;;;5050257;28;20167;-67
2021/06/29 00:43:51;;;;;;;24.27;14.60;;;19.90;99.90;;;;;;5050703;28;20430;-67
2021/06/29 00:46:17;;;;;;;30.67;13.77;;;19.90;99.90;;;;;;5050184;28;20025;-67
2021/06/29 00:48:44;;;;;;;30.67;14.75;;;19.90;99.90;;;;;;5050011;28;20031;-67
2021/06/29 00:51:14;;;;;;;29.27;12.80;;;19.90;99.90;;;;;;5050529;28;20099;-67
2021/06/29 00:53:41;;;;;;;24.27;13.85;;;19.90;99.90;;;;;;5042129;28;20381;-67
2021/06/29 00:56:13;;;;;;;31.90;14.25;;;19.90;99.90;;;;;;5050103;28;20021;-67
2021/06/29 00:58:44;;;;;;;26.17;13.45;;;19.90;99.90;;;;;;5049811;28;20021;-67
2021/06/29 01:01:10;;;;;;;33.58;14.48;;;19.90;99.90;;;;;;5050035;28;20100;-67
2021/06/29 01:03:37;;;;;;;34.35;14.05;;;19.90;99.90;;;;;;5050265;28;20109;-67
2021/06/29 01:06:06;;;;;;;31.45;14.13;;;19.80;99.90;;;;;;5037039;28;20079;-67
2021/06/29 01:08:32;;;;;;;33.53;14.73;;;19.80;99.90;;;;;;5046055;28;20462;-68
2021/06/29 01:10:57;;;;;;;28.70;14.00;;;19.80;99.90;;;;;;5050319;28;20467;-68
2021/06/29 01:13:29;;;;;;;27.58;13.40;;;19.80;99.90;;;;;;5050238;28;20042;-69
2021/06/29 01:15:56;;;;;;;28.48;13.82;;;19.80;99.90;;;;;;5049820;28;20017;-69
2021/06/29 01:18:22;;;;;;;32.22;15.35;;;19.80;99.90;;;;;;5049872;28;20104;-69
2021/06/29 01:20:47;;;;;;;29.98;13.40;;;19.80;99.90;;;;;;5049854;28;20091;-69
2021/06/29 01:23:16;;;;;;;27.77;14.82;;;19.80;99.90;;;;;;5045426;28;20022;-69
2021/06/29 01:25:44;;;;;;;34.92;15.93;;;19.80;99.90;;;;;;5046723;28;20040;-69
2021/06/29 01:28:26;;;;;;;43.45;16.25;;;19.80;99.90;;;;;;5045734;28;20013;-69
2021/06/29 01:31:01;;;;;;;29.50;14.88;;;19.80;99.90;;;;;;5049785;28;20386;-69
2021/06/29 01:33:26;;;;;;;42.25;18.48;;;19.80;99.90;;;;;;5045274;28;20027;-69
2021/06/29 01:35:52;;;;;;;38.53;16.63;;;19.80;99.90;;;;;;5050208;28;20025;-69
2021/06/29 01:38:20;;;;;;;40.58;16.73;;;19.70;99.90;;;;;;5043956;28;20045;-69
2021/06/29 01:40:45;;;;;;;38.78;16.33;;;19.70;99.90;;;;;;5029432;28;20021;-69
2021/06/29 01:43:12;;;;;;;37.88;16.67;;;19.70;99.90;;;;;;5049585;28;20355;-69
2021/06/29 01:45:37;;;;;;;41.53;18.55;;;19.70;99.90;;;;;;5047774;28;20028;-69
2021/06/29 01:48:05;;;;;;;35.88;18.13;;;19.70;99.90;;;;;;5049650;28;20021;-69
2021/06/29 01:50:31;;;;;;;40.42;16.83;;;19.60;99.90;;;;;;5049533;28;20501;-69
2021/06/29 01:52:59;;;;;;;43.55;19.15;;;19.60;99.90;;;;;;5049357;28;20025;-69
2021/06/29 01:55:26;;;;;;;38.97;18.30;;;19.60;99.90;;;;;;5049278;28;20040;-69
2021/06/29 01:57:52;;;;;;;47.83;17.67;;;19.60;99.90;;;;;;5049461;28;20479;-67
2021/06/29 02:00:19;;;;;;;39.70;18.42;;;19.60;99.90;;;;;;5049451;28;20112;-67
2021/06/29 02:02:45;;;;;;;39.33;18.63;;;19.60;99.90;;;;;;5049413;28;20025;-67
2021/06/29 02:05:10;;;;;;;49.65;21.20;;;19.70;99.90;;;;;;5049412;28;20040;-67
2021/06/29 02:07:36;;;;;;;38.75;19.65;;;19.60;99.90;;;;;;5049386;28;20036;-68
2021/06/29 02:10:04;;;;;;;43.95;20.55;;;19.70;99.90;;;;;;5044940;28;20439;-68
2021/06/29 02:12:29;;;;;;;40.55;20.73;;;19.60;99.90;;;;;;5053872;28;20029;-68
2021/06/29 02:14:55;;;;;;;36.95;19.65;;;19.70;99.90;;;;;;5053318;28;20025;-68
2021/06/29 02:17:20;;;;;;;44.00;20.55;;;19.70;99.90;;;;;;5053384;28;20021;-68
2021/06/29 02:19:46;;;;;;;36.40;18.90;;;19.70;99.90;;;;;;5053139;28;20024;-68
2021/06/29 02:22:11;;;;;;;35.70;19.27;;;19.70;99.90;;;;;;5053177;28;20033;-68
2021/06/29 02:24:37;;;;;;;40.88;20.63;;;19.70;99.90;;;;;;5052873;28;20389;-68
2021/06/29 02:27:03;;;;;;;45.60;21.30;;;19.70;99.90;;;;;;5053101;28;20075;-68
2021/06/29 02:29:28;;;;;;;39.60;20.35;;;19.60;99.90;;;;;;5052919;28;20025;-68
2021/06/29 02:31:54;;;;;;;38.67;20.48;;;19.60;99.90;;;;;;5052917;28;20075;-68
2021/06/29 02:34:19;;;;;;;35.13;19.58;;;19.60;99.90;;;;;;5053123;28;20052;-68
2021/06/29 02:36:45;;;;;;;33.83;19.10;;;19.60;99.90;;;;;;5053312;28;20028;-68
2021/06/29 02:39:10;;;;;;;32.75;17.45;;;19.70;99.90;;;;;;5051716;28;20025;-68
2021/06/29 02:41:36;;;;;;;45.80;18.83;;;19.70;99.90;;;;;;5053031;28;20029;-68
2021/06/29 02:44:01;;;;;;;38.83;18.10;;;19.60;99.90;;;;;;5052305;28;20386;-68
2021/06/29 02:46:27;;;;;;;32.53;17.38;;;19.60;99.90;;;;;;5053019;28;20423;-68
2021/06/29 02:48:55;;;;;;;32.33;16.27;;;19.70;99.90;;;;;;5053030;28;20412;-68
2021/06/29 02:51:21;;;;;;;36.13;17.10;;;19.60;99.90;;;;;;5052577;28;20071;-68
2021/06/29 02:53:46;;;;;;;34.17;18.45;;;19.60;99.90;;;;;;5052646;28;20033;-68
2021/06/29 02:56:37;;;;;;;33.13;18.77;;;19.60;99.90;;;;;;5052734;28;20032;-68
2021/06/29 02:58:58;;;;;;;35.15;17.90;;;19.60;99.90;;;;;;5052268;28;20064;-68
2021/06/29 03:01:23;;;;;;;32.80;17.92;;;19.60;99.90;;;;;;5052504;28;20576;-68
2021/06/29 03:03:49;;;;;;;37.30;19.10;;;19.60;99.90;;;;;;5052879;28;20029;-68
2021/06/29 03:06:15;;;;;;;31.90;19.00;;;19.60;99.90;;;;;;5052416;28;20048;-69
2021/06/29 03:08:40;;;;;;;36.05;18.55;;;19.60;99.90;;;;;;5052175;28;20062;-68
2021/06/29 03:11:06;;;;;;;34.70;17.73;;;19.60;99.90;;;;;;5052686;28;20425;-68
2021/06/29 03:13:31;;;;;;;29.30;17.45;;;19.60;99.90;;;;;;5052886;28;20025;-69
2021/06/29 03:15:57;;;;;;;29.85;18.05;;;19.50;99.90;;;;;;5051897;28;20064;-69
2021/06/29 03:18:23;;;;;;;30.38;18.80;;;19.50;99.90;;;;;;5052055;28;20060;-69
2021/06/29 03:20:49;;;;;;;32.90;20.02;;;19.50;99.90;;;;;;5051528;28;20044;-69
2021/06/29 03:23:15;;;;;;;29.45;19.77;;;19.50;99.90;;;;;;5052129;28;20471;-69
2021/06/29 03:25:41;;;;;;;30.25;19.70;;;19.50;99.90;;;;;;5050283;28;20086;-69
2021/06/29 03:28:06;;;;;;;31.85;20.55;;;19.50;99.90;;;;;;5052273;28;20035;-69
2021/06/29 03:30:32;;;;;;;39.70;20.20;;;19.50;99.90;;;;;;5050493;28;20384;-69
2021/06/29 03:32:57;;;;;;;42.63;20.98;;;19.50;99.90;;;;;;5051562;28;20044;-69
2021/06/29 03:35:23;;;;;;;34.85;21.77;;;19.50;99.90;;;;;;5051973;28;20017;-69
2021/06/29 03:37:48;;;;;;;39.67;21.45;;;19.50;99.90;;;;;;5052037;28;20119;-69
2021/06/29 03:40:16;;;;;;;38.88;21.58;;;19.50;99.90;;;;;;5049429;28;20025;-69
2021/06/29 03:42:41;;;;;;;27.08;19.42;;;19.50;99.90;;;;;;5049085;28;20027;-69
2021/06/29 03:45:07;;;;;;;34.13;21.70;;;19.50;99.90;;;;;;5051667;28;20029;-69
2021/06/29 03:47:33;;;;;;;30.80;20.38;;;19.50;99.90;;;;;;5051636;28;20071;-69
2021/06/29 03:50:00;;;;;;;31.55;22.45;;;19.50;99.90;;;;;;5051637;28;20480;-69
2021/06/29 03:52:27;;;;;;;39.63;23.38;;;19.50;99.90;;;;;;5051823;28;20444;-69
2021/06/29 03:54:52;;;;;;;30.92;20.40;;;19.50;99.90;;;;;;5051761;28;20032;-69
2021/06/29 03:57:18;;;;;;;32.95;20.67;;;19.50;99.90;;;;;;5051302;28;20223;-69
2021/06/29 03:59:43;;;;;;;35.78;21.33;;;19.50;99.90;;;;;;5051233;28;20128;-69
2021/06/29 04:02:09;;;;;;;36.75;23.35;;;19.50;99.90;;;;;;5050776;28;20056;-69
2021/06/29 04:04:34;;;;;;;34.90;22.15;;;19.50;99.90;;;;;;5051555;28;20029;-69
2021/06/29 04:07:02;;;;;;;33.13;21.08;;;19.50;99.90;;;;;;5045846;28;20490;-69
2021/06/29 04:09:28;;;;;;;36.20;22.70;;;19.50;99.90;;;;;;5051151;28;20070;-69
2021/06/29 04:11:53;;;;;;;36.25;21.08;;;19.50;99.90;;;;;;5051113;28;20021;-69
2021/06/29 04:14:19;;;;;;;34.10;20.40;;;19.50;99.90;;;;;;5050562;28;20025;-68
2021/06/29 04:16:44;;;;;;;35.08;20.85;;;19.50;99.90;;;;;;5044564;28;20093;-69
2021/06/29 04:19:10;;;;;;;37.00;19.98;;;19.50;99.90;;;;;;5050844;28;20040;-69
2021/06/29 04:21:35;;;;;;;30.90;21.63;;;19.50;99.90;;;;;;5050939;28;20032;-69
2021/06/29 04:24:05;;;;;;;31.38;22.17;;;19.50;99.90;;;;;;5050501;28;20032;-69
2021/06/29 04:26:32;;;;;;;33.42;21.75;;;19.50;99.90;;;;;;5045487;28;20014;-69
2021/06/29 04:28:57;;;;;;;41.15;22.73;;;19.50;99.90;;;;;;5050091;28;20421;-69
2021/06/29 04:31:23;;;;;;;34.28;21.98;;;19.50;99.90;;;;;;5049454;28;20021;-69
2021/06/29 04:33:49;;;;;;;32.67;20.52;;;19.50;99.90;;;;;;5050612;28;20040;-69
2021/06/29 04:36:14;;;;;;;32.65;22.80;;;19.50;99.90;;;;;;5050877;28;20025;-69
2021/06/29 04:38:41;;;;;;;30.98;22.98;;;19.50;99.90;;;;;;5049812;28;20071;-69
2021/06/29 04:41:06;;;;;;;38.08;21.85;;;19.50;99.90;;;;;;5050624;28;20525;-69
2021/06/29 04:43:32;;;;;;;35.28;23.00;;;19.50;99.90;;;;;;5046285;28;20025;-69
2021/06/29 04:45:58;;;;;;;32.20;22.52;;;19.50;99.90;;;;;;5051113;28;20023;-69
2021/06/29 04:48:24;;;;;;;32.47;21.35;;;19.50;99.90;;;;;;5050697;28;20029;-69
2021/06/29 04:50:49;;;;;;;35.67;22.67;;;19.50;99.90;;;;;;5050307;28;20040;-69
2021/06/29 04:53:15;;;;;;;40.63;24.35;;;19.50;99.90;;;;;;5050891;28;20048;-69
2021/06/29 04:55:40;;;;;;;33.92;23.98;;;19.50;99.90;;;;;;5049849;28;20024;-69
2021/06/29 04:58:06;;;;;;;30.60;22.00;;;19.50;99.90;;;;;;5050422;28;20109;-69
2021/06/29 05:00:32;;;;;;;29.98;21.52;;;19.50;99.90;;;;;;5049932;28;20021;-69
2021/06/29 05:02:57;;;;;;;32.70;22.10;;;19.50;99.90;;;;;;5050244;28;20025;-69
2021/06/29 05:05:23;;;;;;;31.80;22.17;;;19.50;99.90;;;;;;5049965;28;20104;-69
2021/06/29 05:07:49;;;;;;;30.52;21.90;;;19.50;99.90;;;;;;5050428;28;20417;-69
2021/06/29 05:10:14;;;;;;;29.55;22.13;;;19.50;99.90;;;;;;5050044;28;20178;-69
2021/06/29 05:12:40;;;;;;;31.70;22.02;;;19.50;99.90;;;;;;5049711;28;20029;-69
2021/06/29 05:15:08;;;;;;;35.83;22.98;;;19.50;99.90;;;;;;5050275;28;20025;-69
2021/06/29 05:17:34;;;;;;;38.08;23.08;;;19.50;99.90;;;;;;5065255;28;20024;-69
2021/06/29 05:20:00;;;;;;;34.30;23.42;;;19.50;99.90;;;;;;5049986;28;20024;-69
2021/06/29 05:22:26;;;;;;;29.40;21.05;;;19.50;99.90;;;;;;5049589;28;20383;-69
2021/06/29 05:24:51;;;;;;;31.88;22.02;;;19.50;99.90;;;;;;5050353;28;20032;-69
2021/06/29 05:27:17;;;;;;;34.45;22.90;;;19.50;99.90;;;;;;5049980;28;20029;-69
2021/06/29 05:29:42;;;;;;;34.25;21.55;;;19.50;99.90;;;;;;5049296;28;20024;-69
2021/06/29 05:32:08;;;;;;;32.45;21.27;;;19.50;99.90;;;;;;5050009;28;20031;-69
2021/06/29 05:34:34;;;;;;;30.70;21.70;;;19.50;99.90;;;;;;5049393;28;20021;-69
2021/06/29 05:37:00;;;;;;;30.52;20.27;;;19.50;99.90;;;;;;5049532;28;20017;-69
2021/06/29 05:39:25;;;;;;;31.98;19.80;;;19.50;99.90;;;;;;5049578;28;20498;-69
2021/06/29 05:41:51;;;;;;;30.90;21.33;;;19.60;99.90;;;;;;5049092;28;20029;-69
2021/06/29 05:44:16;;;;;;;28.33;19.27;;;19.60;99.90;;;;;;5049697;28;20037;-69
2021/06/29 05:46:42;;;;;;;28.55;20.33;;;19.60;99.90;;;;;;5049397;28;20028;-69
2021/06/29 05:49:11;;;;;;;36.47;19.75;;;19.50;99.90;;;;;;5041732;28;20424;-69
2021/06/29 05:51:38;;;;;;;28.85;19.63;;;19.50;99.90;;;;;;5049741;28;20059;-68
2021/06/29 05:54:04;;;;;;;30.88;19.85;;;19.50;99.90;;;;;;5041568;28;20025;-68
2021/06/29 05:56:30;;;;;;;37.30;20.38;;;19.60;99.90;;;;;;5048786;28;20025;-68
2021/06/29 05:58:56;;;;;;;31.52;18.88;;;19.60;99.90;;;;;;5049116;28;20494;-68
2021/06/29 06:01:21;;;;;;;30.25;18.45;;;19.60;99.90;;;;;;5049801;28;20025;-68
2021/06/29 06:03:47;;;;;;;27.83;18.92;;;19.60;99.90;;;;;;5049404;28;20436;-68
2021/06/29 06:06:12;;;;;;;28.70;19.25;;;19.60;99.90;;;;;;5048212;28;20018;-68
2021/06/29 06:08:38;;;;;;;30.40;19.35;;;19.60;99.90;;;;;;5048917;28;20052;-68
2021/06/29 06:11:03;;;;;;;29.58;19.25;;;19.60;99.90;;;;;;5048764;28;20486;-68
2021/06/29 06:13:29;;;;;;;32.75;20.08;;;19.60;99.90;;;;;;5047845;28;20103;-71
2021/06/29 06:15:56;;;;;;;34.42;19.38;;;19.60;99.90;;;;;;5048939;28;20033;-70
2021/06/29 06:18:21;;;;;;;29.13;18.73;;;19.60;99.90;;;;;;5048079;28;20036;-71
2021/06/29 06:20:48;;;;;;;30.33;19.63;;;19.60;99.90;;;;;;5049060;28;20025;-70
2021/06/29 06:23:14;;;;;;;30.02;19.45;;;19.60;99.90;;;;;;5049495;28;20017;-70
2021/06/29 06:25:40;;;;;;;29.77;19.02;;;19.60;99.90;;;;;;5048688;28;20021;-70
2021/06/29 06:28:06;;;;;;;31.33;20.42;;;19.60;99.90;;;;;;5048831;28;20028;-70
2021/06/29 06:30:31;;;;;;;33.33;20.05;;;19.60;99.90;;;;;;5047638;28;20027;-69
2021/06/29 06:32:57;;;;;;;32.10;21.10;;;19.60;99.90;;;;;;5048703;28;20022;-68
2021/06/29 06:35:22;;;;;;;30.70;18.88;;;19.60;99.90;;;;;;5048602;28;20021;-69
2021/06/29 06:37:48;;;;;;;36.78;19.50;;;19.60;99.90;;;;;;5047669;28;20111;-69
2021/06/29 06:40:14;;;;;;;27.65;18.63;;;19.60;99.90;;;;;;5048391;28;20167;-68
2021/06/29 06:42:40;;;;;;;30.85;19.25;;;19.60;99.90;;;;;;5051889;28;20044;-68
2021/06/29 06:45:08;;;;;;;33.25;20.60;;;19.60;99.90;;;;;;5048876;28;20118;-69
2021/06/29 06:47:34;;;;;;;33.67;20.48;;;19.60;99.90;;;;;;5046470;28;20051;-69
2021/06/29 06:49:59;;;;;;;31.90;20.88;;;19.60;99.90;;;;;;5049514;28;20107;-69
2021/06/29 06:52:25;;;;;;;34.38;21.48;;;19.60;99.90;;;;;;5048207;28;20017;-69
2021/06/29 06:54:50;;;;;;;32.60;22.83;;;19.60;99.90;;;;;;5050125;28;20024;-70
2021/06/29 06:57:16;;;;;;;34.63;24.33;;;19.60;99.90;;;;;;5038669;28;20022;-70
2021/06/29 06:59:41;;;;;;;34.97;24.48;;;19.60;99.90;;;;;;5052019;28;20024;-70
2021/06/29 07:02:07;;;;;;;35.53;23.60;;;19.70;99.90;;;;;;5051990;28;20494;-70
2021/06/29 07:04:33;;;;;;;34.30;24.02;;;19.70;99.90;;;;;;5051930;28;20033;-70
2021/06/29 07:06:58;;;;;;;37.05;24.17;;;19.70;99.90;;;;;;5051717;28;20029;-70
2021/06/29 07:09:24;;;;;;;32.85;23.33;;;19.70;99.90;;;;;;5053423;28;20443;-70
2021/06/29 07:11:50;;;;;;;34.80;23.20;;;19.70;99.90;;;;;;5053286;28;20500;-70
2021/06/29 07:14:16;;;;;;;42.22;25.08;;;19.60;99.90;;;;;;5053618;28;20083;-70
2021/06/29 07:16:42;;;;;;;39.70;24.58;;;19.60;99.90;;;;;;5054021;28;20025;-70
2021/06/29 07:19:07;;;;;;;36.70;24.80;;;19.60;99.90;;;;;;5053147;28;20393;-69
2021/06/29 07:21:33;;;;;;;41.38;26.05;;;19.60;99.90;;;;;;5053136;28;20545;-69
2021/06/29 07:23:59;;;;;;;38.03;25.77;;;19.60;99.90;;;;;;5052583;28;20546;-69
2021/06/29 07:26:25;;;;;;;41.50;25.45;;;19.70;99.90;;;;;;5053195;28;20044;-69
2021/06/29 07:28:50;;;;;;;37.70;24.98;;;19.70;99.90;;;;;;5054214;28;20455;-69
2021/06/29 07:31:19;;;;;;;40.05;24.75;;;19.70;99.90;;;;;;5053647;28;20096;-70
2021/06/29 07:33:46;;;;;;;41.50;26.10;;;19.60;99.90;;;;;;5055293;28;20052;-69
2021/06/29 07:36:12;;;;;;;44.15;28.80;;;19.70;99.90;;;;;;5051924;28;20024;-69
2021/06/29 07:38:39;;;;;;;44.70;27.10;;;19.70;99.90;;;;;;5053268;28;20482;-69
2021/06/29 07:41:05;;;;;;;41.58;26.60;;;19.70;99.90;;;;;;5050920;28;20028;-69
2021/06/29 07:43:31;;;;;;;37.08;27.13;;;19.80;99.90;;;;;;5049604;28;20522;-69
2021/06/29 07:45:57;;;;;;;35.25;25.88;;;19.70;99.90;;;;;;5052664;28;20051;-69
2021/06/29 07:48:23;;;;;;;44.15;28.23;;;19.90;99.90;;;;;;5072143;28;20107;-69
2021/06/29 07:50:49;;;;;;;45.33;27.25;;;19.80;99.90;;;;;;5069560;28;20020;-69
2021/06/29 07:53:14;;;;;;;42.03;27.67;;;19.80;99.90;;;;;;5073676;28;20043;-69
2021/06/29 07:55:40;;;;;;;46.65;28.40;;;19.90;99.90;;;;;;5072797;28;20036;-69
2021/06/29 07:58:05;;;;;;;42.33;27.65;;;19.90;99.90;;;;;;5072671;28;20090;-70
2021/06/29 08:00:31;;;;;;;43.40;26.77;;;19.90;99.90;;;;;;5074156;28;20024;-69
2021/06/29 08:02:58;;;;;;;44.75;27.02;;;20.00;99.90;;;;;;5074330;28;20107;-69
2021/06/29 08:05:24;;;;;;;39.20;26.48;;;20.00;99.90;;;;;;5072249;28;20043;-69
2021/06/29 08:07:49;;;;;;;37.55;25.20;;;20.00;99.90;;;;;;5074960;28;20024;-69
2021/06/29 08:10:15;;;;;;;38.00;23.80;;;20.10;99.90;;;;;;5075305;28;20028;-69
2021/06/29 08:12:41;;;;;;;30.20;21.92;;;20.10;99.90;;;;;;5070578;28;20024;-68
2021/06/29 08:15:10;;;;;;;30.67;21.80;;;20.20;99.90;;;;;;5075303;28;20029;-69
2021/06/29 08:17:35;;;;;;;32.05;22.17;;;20.20;99.90;;;;;;5074436;28;20044;-69
2021/06/29 08:20:01;;;;;;;37.47;22.08;;;20.30;99.90;;;;;;5074333;28;20028;-69
2021/06/29 08:22:27;;;;;;;27.13;19.40;;;20.30;99.90;;;;;;5072476;28;20032;-69
2021/06/29 08:24:52;;;;;;;31.95;18.80;;;20.30;99.90;;;;;;5070595;28;20384;-67
2021/06/29 08:27:18;;;;;;;30.95;18.15;;;20.40;99.90;;;;;;5071768;28;20021;-69
2021/06/29 08:29:45;;;;;;;32.33;17.83;;;20.50;99.90;;;;;;5070829;28;20111;-69
2021/06/29 08:32:12;;;;;;;32.47;18.50;;;20.50;99.90;;;;;;5071226;28;20031;-67
2021/06/29 08:34:37;;;;;;;30.05;17.55;;;20.50;99.90;;;;;;5070700;28;20021;-68
2021/06/29 08:37:03;;;;;;;30.02;19.10;;;20.50;99.90;;;;;;5068468;28;20036;-68
2021/06/29 08:39:29;;;;;;;31.38;19.40;;;20.60;99.90;;;;;;5068216;28;20047;-68
2021/06/29 08:41:55;;;;;;;32.13;18.05;;;20.60;99.90;;;;;;5067756;28;20077;-68
2021/06/29 08:44:21;;;;;;;37.78;18.65;;;20.70;99.90;;;;;;5071951;28;20025;-68
2021/06/29 08:46:46;;;;;;;28.92;17.55;;;20.80;99.90;;;;;;5071174;28;20108;-68
2021/06/29 08:49:12;;;;;;;31.13;18.52;;;20.90;99.90;;;;;;5070814;28;20017;-69
2021/06/29 08:51:38;;;;;;;30.98;17.92;;;21.00;99.90;;;;;;5071602;28;20021;-68
2021/06/29 08:54:04;;;;;;;31.63;18.92;;;21.10;99.90;;;;;;5071323;28;20029;-68
2021/06/29 08:56:30;;;;;;;31.75;17.90;;;21.20;99.90;;;;;;5072399;28;20493;-68
2021/06/29 08:58:56;;;;;;;30.40;18.75;;;21.30;99.90;;;;;;5070427;28;20496;-68
2021/06/29 09:01:28;;;;;;;24.45;17.30;;;21.50;99.90;;;;;;5070848;28;20024;-68
2021/06/29 09:03:54;;;;;;;31.00;18.52;;;21.50;99.90;;;;;;5070244;28;20029;-66
2021/06/29 09:06:33;;;;;;;26.88;17.17;;;21.60;99.90;;;;;;5070368;28;20519;-66
2021/06/29 09:09:28;;;;;;;33.55;19.85;;;21.70;99.90;;;;;;5069944;28;20048;-66
2021/06/29 09:11:56;;;;;;;24.90;17.55;;;21.70;99.90;;;;;;5069280;28;21002;-67
2021/06/29 09:14:30;;;;;;;28.55;18.13;;;21.60;99.90;;;;;;5068933;28;20020;-67
2021/06/29 09:17:19;;;;;;;28.80;16.27;;;21.60;99.90;;;;;;5070587;28;20024;-67
2021/06/29 09:19:45;;;;;;;27.23;16.03;;;21.60;99.90;;;;;;5086008;28;20402;-66
2021/06/29 09:22:26;;;;;;;25.20;17.02;;;21.50;99.90;;;;;;5071307;28;20033;-66
2021/06/29 09:24:52;;;;;;;27.30;16.27;;;21.60;99.90;;;;;;5065945;28;20036;-67
2021/06/29 09:27:43;;;;;;;27.38;16.00;;;21.70;99.90;;;;;;5070443;28;20027;-67
2021/06/29 09:30:30;;;;;;;26.65;15.80;;;21.70;99.90;;;;;;5064601;28;20381;-67
2021/06/29 09:33:23;;;;;;;27.08;16.92;;;21.70;99.90;;;;;;5069950;28;20158;-67
2021/06/29 09:36:00;;;;;;;23.80;16.02;;;21.70;99.90;;;;;;5071366;28;20038;-66
2021/06/29 09:38:35;;;;;;;26.75;15.32;;;21.80;99.90;;;;;;5063007;28;20553;-66
2021/06/29 09:41:02;;;;;;;24.25;14.82;;;21.80;99.90;;;;;;5070571;28;20091;-67
2021/06/29 09:43:31;;;;;;;24.48;15.35;;;21.80;99.90;;;;;;5062567;28;20334;-67
2021/06/29 09:45:59;;;;;;;20.00;14.38;;;21.90;99.90;;;;;;5066698;28;21225;-67
2021/06/29 09:48:30;;;;;;;26.70;15.50;;;21.90;99.90;;;;;;5069900;28;20020;-67
2021/06/29 09:50:59;;;;;;;22.08;15.48;;;21.90;99.90;;;;;;5069110;28;20259;-66
2021/06/29 09:53:28;;;;;;;19.95;13.10;;;21.90;99.90;;;;;;5069473;28;20074;-66
2021/06/29 09:55:55;;;;;;;27.73;13.65;;;21.90;99.90;;;;;;5069618;28;20052;-66
2021/06/29 09:58:22;;;;;;;24.63;14.75;;;22.00;99.90;;;;;;5063726;28;20032;-66
2021/06/29 10:00:49;;;;;;;25.58;14.25;;;22.00;99.90;;;;;;5070431;28;20029;-67
2021/06/29 10:03:34;;;;;;;23.90;15.35;;;22.00;99.90;;;;;;5070635;28;20040;-67
2021/06/29 10:06:07;;;;;;;25.17;17.13;;;22.10;99.90;;;;;;5067473;28;20025;-67
2021/06/29 10:08:34;;;;;;;26.25;17.23;;;22.00;99.90;;;;;;5069835;28;20108;-67
2021/06/29 10:11:11;;;;;;;29.08;19.77;;;22.10;99.90;;;;;;5069881;28;20025;-67
2021/06/29 10:13:46;;;;;;;28.25;21.15;;;22.10;99.90;;;;;;5061551;28;20029;-67
2021/06/29 10:16:13;;;;;;;30.73;20.05;;;22.20;99.90;;;;;;5062774;28;20107;-66
2021/06/29 10:18:43;;;;;;;31.60;19.48;;;22.20;99.90;;;;;;5067850;28;20016;-67
2021/06/29 10:21:20;;;;;;;35.17;20.58;;;22.20;99.90;;;;;;5066101;28;20525;-66
2021/06/29 10:23:47;;;;;;;31.50;18.60;;;22.20;99.90;;;;;;5065628;28;20020;-67
2021/06/29 10:26:13;;;;;;;35.97;20.15;;;22.10;99.90;;;;;;5064982;28;20020;-67
2021/06/29 10:28:40;;;;;;;31.83;20.35;;;22.10;99.90;;;;;;5065632;28;20044;-67
2021/06/29 10:31:06;;;;;;;30.95;20.35;;;22.00;99.90;;;;;;5070485;28;20028;-67
2021/06/29 10:33:33;;;;;;;34.90;19.95;;;22.00;99.90;;;;;;5071668;28;20039;-67
2021/06/29 10:36:00;;;;;;;31.25;17.92;;;22.00;99.90;;;;;;5072777;28;20032;-67
2021/06/29 10:38:27;;;;;;;33.55;17.63;;;22.00;99.90;;;;;;5070816;28;20036;-67
2021/06/29 10:40:54;;;;;;;31.35;18.17;;;22.00;99.90;;;;;;5069563;28;20103;-67
2021/06/29 10:43:20;;;;;;;28.58;15.60;;;22.10;99.90;;;;;;5073596;28;20031;-67
2021/06/29 10:45:52;;;;;;;26.15;15.02;;;22.20;99.90;;;;;;5069470;28;20035;-67
2021/06/29 10:48:23;;;;;;;23.10;14.88;;;22.20;99.90;;;;;;5071803;28;20076;-67
2021/06/29 10:50:51;;;;;;;25.40;14.95;;;22.20;99.90;;;;;;5070385;28;20017;-67
2021/06/29 10:53:34;;;;;;;23.40;14.35;;;22.30;99.90;;;;;;5070318;28;20024;-66
2021/06/29 10:56:09;;;;;;;27.80;13.68;;;22.40;99.90;;;;;;5071866;28;20868;-66
2021/06/29 10:58:37;;;;;;;27.88;13.77;;;22.40;99.90;;;;;;5070201;28;20017;-66
2021/06/29 11:01:29;;;;;;;31.98;14.35;;;22.40;99.90;;;;;;5069549;28;20021;-66
2021/06/29 11:03:58;;;;;;;20.58;11.93;;;22.40;99.90;;;;;;5071903;28;20111;-65
2021/06/29 11:06:46;;;;;;;32.08;12.98;;;22.50;99.90;;;;;;5071153;28;20023;-67
2021/06/29 11:09:15;;;;;;;25.93;10.37;;;22.50;99.90;;;;;;5068636;28;20107;-66
2021/06/29 11:12:01;;;;;;;27.73;11.40;;;22.50;99.90;;;;;;5071494;28;20131;-66
2021/06/29 11:14:29;;;;;;;24.73;10.75;;;22.50;99.90;;;;;;5063850;28;20304;-66
2021/06/29 11:16:59;;;;;;;18.25;9.40;;;22.50;99.90;;;;;;5070465;28;20481;-67
2021/06/29 11:20:02;;;;;;;20.33;10.50;;;22.50;99.90;;;;;;5071049;28;20017;-68
2021/06/29 11:22:51;;;;;;;15.05;9.48;;;22.60;99.90;;;;;;5069934;28;20051;-68
2021/06/29 11:25:31;;;;;;;18.30;8.85;;;22.60;99.90;;;;;;5070193;28;20033;-67
2021/06/29 11:28:00;;;;;;;19.40;9.32;;;22.60;99.90;;;;;;5070710;28;20056;-67
2021/06/29 11:30:47;;;;;;;15.20;9.05;;;22.60;99.90;;;;;;5069757;28;20640;-67
2021/06/29 11:33:42;;;;;;;18.73;9.63;;;22.60;99.90;;;;;;5069695;28;20021;-68
2021/06/29 11:36:32;;;;;;;16.48;9.77;;;22.70;99.90;;;;;;5067076;28;20017;-67
2021/06/29 11:39:16;;;;;;;20.05;9.80;;;22.70;99.90;;;;;;5069458;28;20390;-66
2021/06/29 11:41:53;;;;;;;24.98;9.95;;;22.90;99.90;;;;;;5070675;28;20033;-66
2021/06/29 11:44:18;;;;;;;16.63;8.50;;;23.00;99.90;;;;;;5065166;28;20437;-66
2021/06/29 11:46:54;;;;;;;16.20;9.10;;;23.10;99.90;;;;;;5070735;28;20021;-67
2021/06/29 11:49:25;;;;;;;18.60;9.38;;;23.30;99.90;;;;;;5070559;28;20462;-67
2021/06/29 11:51:57;;;;;;;20.00;9.18;;;23.50;99.80;;;;;;5071307;28;20036;-66
2021/06/29 11:54:32;;;;;;;17.25;10.10;;;23.60;99.30;;;;;;5071574;28;20043;-65
2021/06/29 11:56:59;;;;;;;18.17;10.25;;;23.70;99.20;;;;;;5071210;28;20090;-67
2021/06/29 11:59:30;;;;;;;18.45;9.40;;;23.70;99.10;;;;;;5071093;28;20485;-66
2021/06/29 12:02:11;;;;;;;15.20;10.43;;;23.70;98.90;;;;;;5070099;28;20456;-66
2021/06/29 12:05:05;;;;;;;25.73;12.13;;;23.80;98.50;;;;;;5070726;28;20047;-68
2021/06/29 12:07:32;;;;;;;22.15;13.82;;;23.80;98.00;;;;;;5069862;28;20051;-68
2021/06/29 12:09:58;;;;;;;29.20;15.18;;;23.80;98.40;;;;;;5070191;28;20023;-67
2021/06/29 12:12:27;;;;;;;19.58;12.77;;;23.70;97.90;;;;;;5069896;28;20033;-67
2021/06/29 12:15:15;;;;;;;18.58;13.20;;;23.60;97.80;;;;;;5070727;28;20028;-68
2021/06/29 12:17:48;;;;;;;20.95;12.95;;;23.50;97.90;;;;;;5070676;28;20051;-68
2021/06/29 12:20:14;;;;;;;19.48;11.63;;;23.40;98.10;;;;;;5066723;28;20059;-66
2021/06/29 12:22:43;;;;;;;22.10;11.65;;;23.40;98.20;;;;;;5069511;28;20025;-66
2021/06/29 12:25:15;;;;;;;19.20;10.82;;;23.30;98.30;;;;;;5070178;28;20083;-67
2021/06/29 12:27:53;;;;;;;17.60;9.52;;;23.30;98.50;;;;;;5069898;28;20483;-67
2021/06/29 12:30:40;;;;;;;14.45;8.95;;;23.40;98.20;;;;;;5069974;28;20135;-67
2021/06/29 12:33:24;;;;;;;19.20;8.10;;;23.50;98.30;;;;;;5069381;28;20019;-67
2021/06/29 12:35:55;;;;;;;14.93;8.38;;;23.60;98.10;;;;;;5068946;28;20028;-67